sensor_id;sensor_type;location;lat;lon;timestamp;pressure;altitude;pressure_sealevel;temperature;humidity
7586;BME280;12459;42.646;23.292;2023-04-09T00:12:49;93901.47;;;8.10;100.00
7586;BME280;12459;42.646;23.292;2023-04-09T00:27:51;93636.72;;;6.34;100.00
7586;BME280;12459;42.646;23.292;2023-04-09T00:42:53;93886.19;;;7.89;100.00
7586;BME280;12459;42.646;23.292;2023-04-09T00:57:54;93716.63;;;6.45;100.00
7586;BME280;12459;42.646;23.292;2023-04-09T01:13:15;93911.78;;;8.15;100.00
7586;BME280;12459;42.646;23.292;2023-04-09T01:28:30;93819.75;;;7.38;100.00
7586;BME280;12459;42.646;23.292;2023-04-09T01:43:32;93912.19;;;8.31;100.00
7586;BME280;12459;42.646;23.292;2023-04-09T01:58:34;93596.09;;;5.71;100.00
7586;BME280;12459;42.646;23.292;2023-04-09T02:13:37;93830.03;;;7.32;100.00
7586;BME280;12459;42.646;23.292;2023-04-09T02:28:41;93719.78;;;6.75;100.00
7586;BME280;12459;42.646;23.292;2023-04-09T02:43:43;93690.59;;;6.17;100.00
7586;BME280;12459;42.646;23.292;2023-04-09T02:58:44;93696.16;;;5.94;100.00
7586;BME280;12459;42.646;23.292;2023-04-09T03:13:46;93700.97;;;6.32;100.00
7586;BME280;12459;42.646;23.292;2023-04-09T03:28:48;93450.38;;;4.57;100.00
7586;BME280;12459;42.646;23.292;2023-04-09T03:43:50;93667.22;;;5.85;100.00
7586;BME280;12459;42.646;23.292;2023-04-09T03:58:52;93505.47;;;3.93;100.00
7586;BME280;12459;42.646;23.292;2023-04-09T04:13:54;93729.13;;;5.86;100.00
7586;BME280;12459;42.646;23.292;2023-04-09T04:28:56;93783.25;;;6.04;100.00
7586;BME280;12459;42.646;23.292;2023-04-09T04:43:58;93678.88;;;5.70;100.00
7586;BME280;12459;42.646;23.292;2023-04-09T04:58:59;93952.94;;;8.04;100.00
7586;BME280;12459;42.646;23.292;2023-04-09T05:14:01;93928.66;;;8.48;100.00
7586;BME280;12459;42.646;23.292;2023-04-09T05:29:03;93694.81;;;7.22;100.00
7586;BME280;12459;42.646;23.292;2023-04-09T05:44:04;93662.81;;;7.04;100.00
7586;BME280;12459;42.646;23.292;2023-04-09T05:59:06;93740.97;;;7.76;100.00
7586;BME280;12459;42.646;23.292;2023-04-09T06:14:08;93797.81;;;8.34;100.00
7586;BME280;12459;42.646;23.292;2023-04-09T06:29:12;93884.41;;;8.68;100.00
7586;BME280;12459;42.646;23.292;2023-04-09T06:44:14;93859.97;;;9.89;100.00
7586;BME280;12459;42.646;23.292;2023-04-09T06:59:16;93877.38;;;10.26;100.00
7586;BME280;12459;42.646;23.292;2023-04-09T07:14:18;93800.59;;;9.35;96.67
7586;BME280;12459;42.646;23.292;2023-04-09T07:29:19;93958.28;;;10.65;90.78
7586;BME280;12459;42.646;23.292;2023-04-09T07:44:22;93942.63;;;11.08;89.30
7586;BME280;12459;42.646;23.292;2023-04-09T07:59:24;93736.72;;;9.55;90.76
7586;BME280;12459;42.646;23.292;2023-04-09T08:14:27;93800.56;;;9.49;91.01
7586;BME280;12459;42.646;23.292;2023-04-09T08:29:28;93908.09;;;10.69;89.84
7586;BME280;12459;42.646;23.292;2023-04-09T08:44:30;93920.50;;;10.97;88.94
7586;BME280;12459;42.646;23.292;2023-04-09T08:59:32;93714.66;;;9.33;90.58
7586;BME280;12459;42.646;23.292;2023-04-09T09:14:37;93722.63;;;9.47;89.80
7586;BME280;12459;42.646;23.292;2023-04-09T09:29:42;93671.88;;;9.33;87.57
7586;BME280;12459;42.646;23.292;2023-04-09T09:44:46;93897.47;;;11.41;84.22
7586;BME280;12459;42.646;23.292;2023-04-09T10:00:01;93821.72;;;10.51;83.14
7586;BME280;12459;42.646;23.292;2023-04-09T10:15:05;93765.59;;;10.74;81.55
7586;BME280;12459;42.646;23.292;2023-04-09T10:30:07;93848.13;;;12.23;78.36
7586;BME280;12459;42.646;23.292;2023-04-09T10:45:12;93861.72;;;12.39;74.51
7586;BME280;12459;42.646;23.292;2023-04-09T11:00:15;93677.25;;;11.82;69.69
7586;BME280;12459;42.646;23.292;2023-04-09T11:15:19;93833.66;;;13.33;69.51
7586;BME280;12459;42.646;23.292;2023-04-09T11:30:21;93822.88;;;13.33;67.90
7586;BME280;12459;42.646;23.292;2023-04-09T11:45:25;93728.66;;;12.74;65.96
7586;BME280;12459;42.646;23.292;2023-04-09T12:00:28;93719.53;;;12.25;70.91
7586;BME280;12459;42.646;23.292;2023-04-09T12:15:34;93816.41;;;13.07;72.45
7586;BME280;12459;42.646;23.292;2023-04-09T12:30:37;93415.03;;;10.39;68.51
7586;BME280;12459;42.646;23.292;2023-04-09T12:45:39;93714.09;;;12.52;66.81
7586;BME280;12459;42.646;23.292;2023-04-09T13:00:40;93689.69;;;12.62;65.44
7586;BME280;12459;42.646;23.292;2023-04-09T13:15:42;93782.31;;;13.24;67.55
7586;BME280;12459;42.646;23.292;2023-04-09T13:30:46;93769.66;;;13.41;64.16
7586;BME280;12459;42.646;23.292;2023-04-09T13:45:48;93588.25;;;11.83;66.79
7586;BME280;12459;42.646;23.292;2023-04-09T14:00:50;93656.31;;;12.40;65.41
7586;BME280;12459;42.646;23.292;2023-04-09T14:15:52;93765.50;;;12.97;65.22
7586;BME280;12459;42.646;23.292;2023-04-09T14:30:53;93282.69;;;9.59;64.11
7586;BME280;12459;42.646;23.292;2023-04-09T14:45:55;93407.22;;;10.51;66.36
7586;BME280;12459;42.646;23.292;2023-04-09T15:00:57;93688.16;;;11.95;65.16
7586;BME280;12459;42.646;23.292;2023-04-09T15:15:59;93709.63;;;12.65;63.70
7586;BME280;12459;42.646;23.292;2023-04-09T15:31:01;93619.91;;;11.69;78.88
7586;BME280;12459;42.646;23.292;2023-04-09T15:46:09;93674.09;;;11.87;60.11
7586;BME280;12459;42.646;23.292;2023-04-09T16:01:11;93563.03;;;11.27;59.78
7586;BME280;12459;42.646;23.292;2023-04-09T16:16:13;93627.88;;;11.49;60.83
7586;BME280;12459;42.646;23.292;2023-04-09T16:31:15;93673.47;;;11.76;66.57
7586;BME280;12459;42.646;23.292;2023-04-09T16:46:16;93604.34;;;11.06;79.34
7586;BME280;12459;42.646;23.292;2023-04-09T17:01:18;93552.22;;;10.23;83.98
7586;BME280;12459;42.646;23.292;2023-04-09T17:16:20;93640.22;;;10.59;92.50
7586;BME280;12459;42.646;23.292;2023-04-09T17:31:22;93698.97;;;10.76;95.71
7586;BME280;12459;42.646;23.292;2023-04-09T17:46:24;93712.16;;;10.60;97.80
7586;BME280;12459;42.646;23.292;2023-04-09T18:01:26;93624.44;;;9.89;100.00
7586;BME280;12459;42.646;23.292;2023-04-09T18:16:28;93483.28;;;8.73;100.00
7586;BME280;12459;42.646;23.292;2023-04-09T18:31:30;93627.97;;;9.31;100.00
7586;BME280;12459;42.646;23.292;2023-04-09T18:46:32;93564.56;;;9.31;93.67
7586;BME280;12459;42.646;23.292;2023-04-09T19:01:33;93835.91;;;11.27;89.91
7586;BME280;12459;42.646;23.292;2023-04-09T19:16:36;93603.28;;;9.60;89.26
7586;BME280;12459;42.646;23.292;2023-04-09T19:31:38;93686.97;;;10.09;88.96
7586;BME280;12459;42.646;23.292;2023-04-09T19:46:40;93789.00;;;10.70;88.62
7586;BME280;12459;42.646;23.292;2023-04-09T20:01:41;93610.81;;;9.24;90.49
7586;BME280;12459;42.646;23.292;2023-04-09T20:16:44;93711.91;;;9.51;92.42
7586;BME280;12459;42.646;23.292;2023-04-09T20:31:47;93686.22;;;9.60;92.83
7586;BME280;12459;42.646;23.292;2023-04-09T20:46:49;93684.84;;;9.38;94.48
7586;BME280;12459;42.646;23.292;2023-04-09T21:01:51;93681.97;;;9.08;95.22
7586;BME280;12459;42.646;23.292;2023-04-09T21:16:54;93798.66;;;10.09;92.85
7586;BME280;12459;42.646;23.292;2023-04-09T21:31:56;93708.69;;;9.74;93.66
7586;BME280;12459;42.646;23.292;2023-04-09T21:46:58;93580.38;;;8.45;95.15
7586;BME280;12459;42.646;23.292;2023-04-09T22:01:59;93701.41;;;9.12;97.58
7586;BME280;12459;42.646;23.292;2023-04-09T22:17:02;93649.78;;;8.49;95.64
7586;BME280;12459;42.646;23.292;2023-04-09T22:32:03;93577.59;;;7.29;95.08
7586;BME280;12459;42.646;23.292;2023-04-09T22:47:05;93444.41;;;6.55;89.28
7586;BME280;12459;42.646;23.292;2023-04-09T23:02:07;93746.19;;;8.90;86.54
7586;BME280;12459;42.646;23.292;2023-04-09T23:17:09;93612.22;;;7.65;86.27
7586;BME280;12459;42.646;23.292;2023-04-09T23:32:11;93674.22;;;8.22;83.79
7586;BME280;12459;42.646;23.292;2023-04-09T23:47:13;93662.09;;;7.86;81.48
